Etusivu
METAR-TAF:

METAR-TAF

Lentoasemat :

Bluefields, Nicaragua

Leveyspiiri: 12-00N, Pituuspiiri: 083-46W, korkeus merenpinnasta: 5 m

Tämänhetkinen sää

Tämä raportti tehtiin 1 tunti ja 2 minuuttia sitten, kello 20.00 UTC
Tuuli 4 kn idästä
Lämpötila 31°C
Kosteus 75%
Ilmanpaine 1011 hPa
Näkyvyys 10 km tai enemmän
Hajanaisia pilviä 2000 ft:n korkeudessa

METAR: MNBL 212000Z 09004KT 9999 SCT020 31/26 Q1011

Aika: 15:02 (21:02 UTC)

Sääennuste

Tämä raportti tehtiin 5 tuntia ja 10 minuuttia sitten, kello 15.52 UTC
Ennuste voimassa 21. päivästä klo 18 UTC - 22. päivään klo 18 UTC
Tuuli 6 kn eri suunnista
Hajonneita pilviä 1800 ft:n korkeudessa
heikkoa sadetta,

TAF: MNBL 211552Z 2118/2218 VRB06KT 9999/8000 -RA BKN018

Säähavainnot ja -ennusteet yli 4000 lentoasemalta (METAR- ja TAF-raportit).

Käytössä olevat sääasemat on merkitty karttaan keltaisilla ja punaisilla pisteillä.

Aseta hiiri pisteen päälle nähdäksesi sääaseman nimen.

Klikkaa sitten nähdäksesi säähavainnot ja -ennusteet.

Kartan vaihtaminen: klikkaa mustalla rastilla varustettuja vihreitä pisteitä, niin voit zoomata sisään; viivalla varustettua vihreää pistettä, niin voit zoomata ulos tai vihreitä nuolia, niin pääset viereisille kartoille.


METAR-TAF: